Time,TemperatureF,DewpointF,PressureIn,WindDirection,WindDirectionDegrees,WindSpeedMPH,WindSpeedGustMPH,Humidity,HourlyPrecipIn,Conditions,Clouds,dailyrainin,SolarRadiationWatts/m^2,SoftwareType,DateUTC
2015-01-27 00:03:00,19.0,17.0,-100.00,North,-999,0.0,2.0,91,0.00,,,0.00,1.000000,,2015-01-27 05:03:00,
2015-01-27 00:13:00,19.0,17.0,-100.00,North,-999,0.0,2.0,91,0.00,,,0.00,1.000000,,2015-01-27 05:13:00,
2015-01-27 00:44:00,19.0,17.0,-100.00,North,-999,0.0,2.0,91,0.00,,,0.00,1.000000,,2015-01-27 05:44:00,
2015-01-27 00:53:00,19.0,17.0,-100.00,North,-999,0.0,2.0,91,0.00,,,0.00,1.000000,,2015-01-27 05:53:00,
2015-01-27 01:03:00,19.0,17.0,-100.00,North,-999,0.0,2.0,91,0.00,,,0.00,1.000000,,2015-01-27 06:03:00,
2015-01-27 01:43:00,17.0,15.0,-100.00,North,-999,0.0,0.0,90,0.00,,,0.00,1.000000,,2015-01-27 06:43:00,
2015-01-27 01:53:00,17.0,15.0,-100.00,North,-999,0.0,0.0,90,0.00,,,0.00,1.000000,,2015-01-27 06:53:00,
2015-01-27 02:02:00,17.0,15.0,-100.00,North,-999,0.0,0.0,90,0.00,,,0.00,1.000000,,2015-01-27 07:02:00,
2015-01-27 02:12:00,17.0,15.0,-100.00,North,-999,0.0,0.0,90,0.00,,,0.00,1.000000,,2015-01-27 07:12:00,
2015-01-27 02:43:00,15.0,12.0,-100.00,North,-999,0.0,2.0,89,0.00,,,0.00,1.000000,,2015-01-27 07:43:00,
2015-01-27 02:53:00,15.0,12.0,-100.00,North,-999,0.0,2.0,89,0.00,,,0.00,1.000000,,2015-01-27 07:53:00,
2015-01-27 03:02:00,15.0,12.0,-100.00,North,-999,0.0,2.0,89,0.00,,,0.00,1.000000,,2015-01-27 08:02:00,
2015-01-27 03:12:00,15.0,12.0,-100.00,North,-999,0.0,2.0,89,0.00,,,0.00,1.000000,,2015-01-27 08:12:00,
2015-01-27 03:42:00,14.0,11.0,-100.00,East,85,1.0,3.0,88,0.00,,,0.00,1.000000,,2015-01-27 08:42:00,
2015-01-27 03:52:00,14.0,11.0,-100.00,East,85,1.0,3.0,88,0.00,,,0.00,1.000000,,2015-01-27 08:52:00,
2015-01-27 04:02:00,14.0,11.0,-100.00,East,85,1.0,3.0,88,0.00,,,0.00,1.000000,,2015-01-27 09:02:00,
2015-01-27 04:12:00,14.0,11.0,-100.00,East,85,1.0,3.0,88,0.00,,,0.00,1.000000,,2015-01-27 09:12:00,
2015-01-27 04:13:00,14.0,11.0,-100.00,North,-999,0.0,2.0,88,0.00,,,0.00,1.000000,,2015-01-27 09:13:00,
2015-01-27 04:44:00,14.0,11.0,-100.00,North,-999,0.0,2.0,88,0.00,,,0.00,1.000000,,2015-01-27 09:44:00,
2015-01-27 04:54:00,14.0,11.0,-100.00,North,-999,0.0,2.0,88,0.00,,,0.00,1.000000,,2015-01-27 09:54:00,
2015-01-27 05:03:00,14.0,11.0,-100.00,North,-999,0.0,2.0,88,0.00,,,0.00,1.000000,,2015-01-27 10:03:00,
2015-01-27 05:13:00,15.0,12.0,-100.00,SE,137,1.0,3.0,88,0.00,,,0.00,1.000000,,2015-01-27 10:13:00,
2015-01-27 05:44:00,15.0,12.0,-100.00,SE,137,1.0,3.0,88,0.00,,,0.00,1.000000,,2015-01-27 10:44:00,
2015-01-27 05:54:00,15.0,12.0,-100.00,SE,137,1.0,3.0,88,0.00,,,0.00,1.000000,,2015-01-27 10:54:00,
2015-01-27 06:03:00,15.0,12.0,-100.00,SE,137,1.0,3.0,88,0.00,,,0.00,1.000000,,2015-01-27 11:03:00,
2015-01-27 06:13:00,13.0,9.0,-100.00,North,-999,0.0,2.0,85,0.00,,,0.00,1.000000,,2015-01-27 11:13:00,
2015-01-27 06:44:00,13.0,9.0,-100.00,North,-999,0.0,2.0,85,0.00,,,0.00,1.000000,,2015-01-27 11:44:00,
2015-01-27 06:53:00,13.0,9.0,-100.00,North,-999,0.0,2.0,85,0.00,,,0.00,1.000000,,2015-01-27 11:53:00,
2015-01-27 07:03:00,13.0,9.0,-100.00,North,-999,0.0,2.0,85,0.00,,,0.00,1.000000,,2015-01-27 12:03:00,
2015-01-27 07:43:00,12.0,9.0,-100.00,North,-999,0.0,2.0,87,0.00,,,0.00,1.000000,,2015-01-27 12:43:00,
2015-01-27 07:53:00,12.0,9.0,-100.00,North,-999,0.0,2.0,87,0.00,,,0.00,1.000000,,2015-01-27 12:53:00,
2015-01-27 08:03:00,12.0,9.0,-100.00,North,-999,0.0,2.0,87,0.00,,,0.00,1.000000,,2015-01-27 13:03:00,
2015-01-27 08:12:00,12.0,9.0,-100.00,North,-999,0.0,2.0,87,0.00,,,0.00,1.000000,,2015-01-27 13:12:00,
2015-01-27 08:43:00,9.0,6.0,-100.00,North,-999,0.0,2.0,88,0.00,,,0.00,1.000000,,2015-01-27 13:43:00,
2015-01-27 08:52:00,9.0,6.0,-100.00,North,-999,0.0,2.0,88,0.00,,,0.00,1.000000,,2015-01-27 13:52:00,
2015-01-27 09:02:00,9.0,6.0,-100.00,North,-999,0.0,2.0,88,0.00,,,0.00,1.000000,,2015-01-27 14:02:00,
2015-01-27 09:12:00,9.0,6.0,-100.00,North,-999,0.0,2.0,88,0.00,,,0.00,1.000000,,2015-01-27 14:12:00,
2015-01-27 09:43:00,7.0,2.0,-100.00,North,-999,0.0,0.0,81,0.00,,,-99.99,6.000000,,2015-01-27 14:43:00,
2015-01-27 09:53:00,7.0,2.0,-100.00,North,-999,0.0,0.0,81,0.00,,,-99.99,6.000000,,2015-01-27 14:53:00,
2015-01-27 10:02:00,7.0,2.0,-100.00,North,-999,0.0,0.0,81,0.00,,,-99.99,6.000000,,2015-01-27 15:02:00,
2015-01-27 10:12:00,7.0,2.0,-100.00,North,-999,0.0,0.0,81,0.00,,,-99.99,6.000000,,2015-01-27 15:12:00,
2015-01-27 10:13:00,12.0,8.0,-100.00,North,-999,0.0,2.0,83,0.00,,,0.00,31.000000,,2015-01-27 15:13:00,
2015-01-27 10:45:00,12.0,8.0,-100.00,North,-999,0.0,2.0,83,0.00,,,0.00,31.000000,,2015-01-27 15:45:00,
2015-01-27 10:55:00,12.0,8.0,-100.00,North,-999,0.0,2.0,83,0.00,,,0.00,31.000000,,2015-01-27 15:55:00,
2015-01-27 11:04:00,12.0,8.0,-100.00,North,-999,0.0,2.0,83,0.00,,,0.00,31.000000,,2015-01-27 16:04:00,
2015-01-27 11:13:00,21.0,14.0,-100.00,NNW,344,1.0,3.0,75,0.00,,,-99.99,77.000000,,2015-01-27 16:13:00,
2015-01-27 11:44:00,21.0,14.0,-100.00,NNW,344,1.0,3.0,75,0.00,,,-99.99,77.000000,,2015-01-27 16:44:00,
2015-01-27 11:54:00,21.0,14.0,-100.00,NNW,344,1.0,3.0,75,0.00,,,-99.99,77.000000,,2015-01-27 16:54:00,
2015-01-27 12:03:00,21.0,14.0,-100.00,NNW,344,1.0,3.0,75,0.00,,,-99.99,77.000000,,2015-01-27 17:03:00,
2015-01-27 12:13:00,30.0,19.0,-100.00,North,357,1.0,5.0,63,0.00,,,0.00,197.000000,,2015-01-27 17:13:00,
2015-01-27 12:53:00,30.0,19.0,-100.00,North,357,1.0,5.0,63,0.00,,,0.00,197.000000,,2015-01-27 17:53:00,
2015-01-27 13:02:00,30.0,19.0,-100.00,North,357,1.0,5.0,63,0.00,,,0.00,197.000000,,2015-01-27 18:02:00,